createdAt,value
2017-09-10T00:00:47.198Z,100
2017-09-10T00:01:49.585Z,100
2017-09-10T00:02:51.979Z,100
2017-09-10T00:03:54.388Z,100
2017-09-10T00:04:56.777Z,100
2017-09-10T00:05:59.168Z,100
2017-09-10T00:07:01.579Z,100
2017-09-10T00:08:03.971Z,100
2017-09-10T00:09:06.376Z,100
2017-09-10T00:10:08.774Z,100
2017-09-10T00:11:11.165Z,100
2017-09-10T00:12:13.565Z,100
2017-09-10T00:13:15.958Z,100
2017-09-10T00:14:18.392Z,100
2017-09-10T00:15:20.781Z,100
2017-09-10T00:16:23.179Z,100
2017-09-10T00:17:25.573Z,100
2017-09-10T00:18:27.959Z,100
2017-09-10T00:19:30.355Z,100
2017-09-10T00:20:32.763Z,100
2017-09-10T00:21:35.155Z,100
2017-09-10T00:22:37.551Z,100
2017-09-10T00:23:39.982Z,100
2017-09-10T00:24:42.337Z,100
2017-09-10T00:25:44.750Z,100
2017-09-10T00:26:47.158Z,100
2017-09-10T00:27:49.543Z,100
2017-09-10T00:28:51.946Z,100
2017-09-10T00:29:54.346Z,100
2017-09-10T00:30:56.748Z,100
2017-09-10T00:31:59.481Z,100
2017-09-10T00:33:01.867Z,100
2017-09-10T00:34:04.262Z,100
2017-09-10T00:35:06.666Z,100
2017-09-10T00:36:09.074Z,100
2017-09-10T00:37:11.463Z,100
2017-09-10T00:38:13.866Z,100
2017-09-10T00:39:16.265Z,100
2017-09-10T00:40:18.669Z,100
2017-09-10T00:41:21.060Z,100
2017-09-10T00:42:23.780Z,100
2017-09-10T00:43:26.181Z,100
2017-09-10T00:44:28.582Z,100
2017-09-10T00:45:30.979Z,100
2017-09-10T00:46:33.373Z,100
2017-09-10T00:47:35.764Z,100
2017-09-10T00:48:38.155Z,100
2017-09-10T00:49:40.553Z,100
2017-09-10T00:50:42.946Z,100
2017-09-10T00:51:45.353Z,100
2017-09-10T00:52:47.761Z,100
2017-09-10T00:53:50.142Z,100
2017-09-10T00:54:52.541Z,100
2017-09-10T00:55:54.941Z,100
2017-09-10T00:56:57.679Z,100
2017-09-10T00:58:00.093Z,100
2017-09-10T00:59:02.480Z,100
2017-09-10T01:00:05.222Z,100
2017-09-10T01:01:07.618Z,100
2017-09-10T01:02:10.009Z,100
2017-09-10T01:03:12.752Z,100
2017-09-10T01:04:15.144Z,100
2017-09-10T01:05:17.536Z,100
2017-09-10T01:06:19.940Z,100
2017-09-10T01:07:22.363Z,100
2017-09-10T01:08:24.723Z,100
2017-09-10T01:09:27.120Z,100
2017-09-10T01:10:29.530Z,100
2017-09-10T01:11:32.286Z,100
2017-09-10T01:12:34.679Z,100
2017-09-10T01:13:37.071Z,100
2017-09-10T01:14:39.471Z,100
2017-09-10T01:15:41.883Z,100
2017-09-10T01:16:44.274Z,100
2017-09-10T01:17:46.668Z,100
2017-09-10T01:18:49.058Z,100
2017-09-10T01:19:51.466Z,100
2017-09-10T01:20:53.866Z,100
2017-09-10T01:21:56.258Z,100
2017-09-10T01:22:58.657Z,100
2017-09-10T01:24:01.052Z,100
2017-09-10T01:25:03.444Z,100
2017-09-10T01:26:05.848Z,100
2017-09-10T01:27:08.628Z,100
2017-09-10T01:28:11.043Z,100
2017-09-10T01:29:13.439Z,100
2017-09-10T01:30:15.841Z,100
2017-09-10T01:31:18.252Z,100
2017-09-10T01:32:21.012Z,100
2017-09-10T01:33:23.758Z,100
2017-09-10T01:34:26.522Z,100
2017-09-10T01:35:28.942Z,100
2017-09-10T01:36:31.700Z,100
2017-09-10T01:37:34.089Z,100
2017-09-10T01:38:36.481Z,100
2017-09-10T01:39:38.880Z,100
2017-09-10T01:40:41.280Z,100
2017-09-10T01:41:43.670Z,100
2017-09-10T01:42:46.064Z,100
2017-09-10T01:43:48.459Z,100
2017-09-10T01:44:50.860Z,100
2017-09-10T01:45:53.260Z,100
2017-09-10T01:46:55.658Z,100
2017-09-10T01:47:58.044Z,100
2017-09-10T01:49:00.448Z,100
2017-09-10T01:50:03.185Z,100
2017-09-10T01:51:05.578Z,100
2017-09-10T01:52:07.978Z,100
2017-09-10T01:53:10.364Z,100
2017-09-10T01:54:12.760Z,100
2017-09-10T01:55:15.160Z,100
2017-09-10T01:56:17.550Z,100
2017-09-10T01:57:19.942Z,100
2017-09-10T01:58:22.338Z,100
2017-09-10T01:59:24.730Z,100
2017-09-10T02:00:27.121Z,100
2017-09-10T02:01:29.862Z,100
2017-09-10T02:02:32.258Z,100
2017-09-10T02:03:34.655Z,100
2017-09-10T02:04:37.062Z,100
2017-09-10T02:05:39.473Z,100
2017-09-10T02:06:41.875Z,100
2017-09-10T02:07:44.616Z,100
2017-09-10T02:08:47.002Z,100
2017-09-10T02:09:49.408Z,100
2017-09-10T02:10:51.801Z,100
2017-09-10T02:11:54.195Z,100
2017-09-10T02:12:56.586Z,100
2017-09-10T02:13:58.991Z,100
2017-09-10T02:15:01.380Z,100
2017-09-10T02:16:03.772Z,100
2017-09-10T02:17:06.175Z,100
2017-09-10T02:18:08.565Z,100
2017-09-10T02:19:10.959Z,100
2017-09-10T02:20:13.356Z,100
2017-09-10T02:21:16.109Z,100
2017-09-10T02:22:18.509Z,100
2017-09-10T02:23:21.578Z,100
2017-09-10T02:24:23.964Z,100
2017-09-10T02:25:26.364Z,100
2017-09-10T02:26:29.094Z,100
2017-09-10T02:27:31.499Z,100
2017-09-10T02:28:33.893Z,100
2017-09-10T02:29:36.272Z,100
2017-09-10T02:30:38.670Z,100
2017-09-10T02:31:41.086Z,100
2017-09-10T02:32:43.481Z,100
2017-09-10T02:33:45.877Z,100
2017-09-10T02:34:48.270Z,100
2017-09-10T02:35:50.655Z,100
2017-09-10T02:36:53.058Z,100
2017-09-10T02:37:55.445Z,100
2017-09-10T02:38:57.833Z,100
2017-09-10T02:40:00.236Z,100
2017-09-10T02:41:02.625Z,100
2017-09-10T02:42:05.023Z,100
2017-09-10T02:43:07.416Z,100
2017-09-10T02:44:09.818Z,100
2017-09-10T02:45:12.207Z,100
2017-09-10T02:46:14.613Z,100
2017-09-10T02:47:17.001Z,100
2017-09-10T02:48:19.409Z,100
2017-09-10T02:49:21.805Z,100
2017-09-10T02:50:24.199Z,100
2017-09-10T02:51:26.588Z,100
2017-09-10T02:52:28.986Z,100
2017-09-10T02:53:31.714Z,100
2017-09-10T02:54:34.107Z,100
2017-09-10T02:55:36.500Z,100
2017-09-10T02:56:38.901Z,100
2017-09-10T02:57:41.300Z,100
2017-09-10T02:58:43.692Z,100
2017-09-10T02:59:46.086Z,100
2017-09-10T03:00:48.475Z,100
2017-09-10T03:01:50.872Z,100
2017-09-10T03:02:53.278Z,100
2017-09-10T03:03:55.664Z,100
2017-09-10T03:04:58.053Z,100
2017-09-10T03:06:00.448Z,100
2017-09-10T03:07:03.176Z,100
2017-09-10T03:08:05.579Z,100
2017-09-10T03:09:07.969Z,100
2017-09-10T03:10:10.361Z,100
2017-09-10T03:11:12.758Z,100
2017-09-10T03:12:15.156Z,100
2017-09-10T03:13:17.548Z,100
2017-09-10T03:14:19.942Z,100
2017-09-10T03:15:22.332Z,100
2017-09-10T03:16:24.736Z,100
2017-09-10T03:17:27.130Z,100
2017-09-10T03:18:29.530Z,100
2017-09-10T03:19:31.922Z,100
2017-09-10T03:20:34.653Z,100
2017-09-10T03:21:37.047Z,100
2017-09-10T03:22:39.440Z,100
2017-09-10T03:23:42.175Z,100
2017-09-10T03:24:44.567Z,100
2017-09-10T03:25:46.970Z,100
2017-09-10T03:26:49.365Z,100
2017-09-10T03:27:51.758Z,100
2017-09-10T03:28:54.156Z,100
2017-09-10T03:29:56.543Z,100
2017-09-10T03:30:58.935Z,100
2017-09-10T03:32:01.329Z,100
2017-09-10T03:33:03.733Z,100
2017-09-10T03:34:06.129Z,100
2017-09-10T03:35:08.521Z,100
2017-09-10T03:36:10.915Z,100
2017-09-10T03:37:13.316Z,100
2017-09-10T03:38:15.701Z,100
2017-09-10T03:39:18.093Z,100
2017-09-10T03:40:20.492Z,100
2017-09-10T03:41:22.883Z,100
2017-09-10T03:42:25.270Z,100
2017-09-10T03:43:27.671Z,100
2017-09-10T03:44:30.056Z,100
2017-09-10T03:45:32.454Z,100
2017-09-10T03:46:34.847Z,100
2017-09-10T03:47:37.246Z,100
2017-09-10T03:48:39.643Z,100
2017-09-10T03:49:42.035Z,100
2017-09-10T03:50:44.443Z,100
2017-09-10T03:51:46.850Z,100
2017-09-10T03:52:49.602Z,100
2017-09-10T03:53:52.687Z,100
2017-09-10T03:54:55.075Z,100
2017-09-10T03:55:57.468Z,100
2017-09-10T03:56:59.860Z,100
2017-09-10T03:58:02.253Z,100
2017-09-10T03:59:04.645Z,100
2017-09-10T04:00:07.040Z,100
2017-09-10T04:01:09.770Z,100
2017-09-10T04:02:12.175Z,100
2017-09-10T04:03:14.567Z,100
2017-09-10T04:04:16.952Z,100
2017-09-10T04:05:19.349Z,100
2017-09-10T04:06:22.083Z,100
2017-09-10T04:07:24.486Z,100
2017-09-10T04:08:26.874Z,100
2017-09-10T04:09:29.285Z,100
2017-09-10T04:10:31.683Z,100
2017-09-10T04:11:34.419Z,100
2017-09-10T04:12:36.808Z,100
2017-09-10T04:13:39.197Z,100
2017-09-10T04:14:41.592Z,100
2017-09-10T04:15:43.985Z,100
2017-09-10T04:16:46.721Z,100
2017-09-10T04:17:49.115Z,100
2017-09-10T04:18:51.511Z,100
2017-09-10T04:19:53.898Z,100
2017-09-10T04:20:56.295Z,100
2017-09-10T04:21:59.012Z,100
2017-09-10T04:23:01.410Z,100
2017-09-10T04:24:03.811Z,100
2017-09-10T04:25:06.204Z,100
2017-09-10T04:26:08.593Z,100
2017-09-10T04:27:10.995Z,100
2017-09-10T04:28:13.389Z,100
2017-09-10T04:29:15.801Z,100
2017-09-10T04:30:18.542Z,100
2017-09-10T04:31:20.940Z,100
2017-09-10T04:32:23.340Z,100
2017-09-10T04:33:25.738Z,100
2017-09-10T04:34:28.150Z,100
2017-09-10T04:35:30.535Z,100
2017-09-10T04:36:32.935Z,100
2017-09-10T04:37:35.341Z,100
2017-09-10T04:38:37.733Z,100
2017-09-10T04:39:40.139Z,100
2017-09-10T04:40:42.539Z,100
2017-09-10T04:41:44.933Z,100
2017-09-10T04:42:47.321Z,100
2017-09-10T04:43:49.715Z,100
2017-09-10T04:44:52.111Z,100
2017-09-10T04:45:54.512Z,100
2017-09-10T04:46:56.893Z,100
2017-09-10T04:47:59.307Z,100
2017-09-10T04:49:01.709Z,100
2017-09-10T04:50:04.112Z,100
2017-09-10T04:51:06.525Z,100
2017-09-10T04:52:08.901Z,100
2017-09-10T04:53:11.293Z,100
2017-09-10T04:54:14.028Z,100
2017-09-10T04:55:16.416Z,100
2017-09-10T04:56:18.812Z,100
2017-09-10T04:57:21.202Z,100
2017-09-10T04:58:23.597Z,100
2017-09-10T04:59:25.993Z,100
2017-09-10T05:00:28.398Z,100
2017-09-10T05:01:30.805Z,100
2017-09-10T05:02:33.193Z,100
2017-09-10T05:03:35.599Z,100
2017-09-10T05:04:37.984Z,100
2017-09-10T05:05:40.396Z,100
2017-09-10T05:06:42.784Z,100
2017-09-10T05:07:45.170Z,100
2017-09-10T05:08:47.578Z,100
2017-09-10T05:09:49.963Z,100
2017-09-10T05:10:52.365Z,100
2017-09-10T05:11:54.752Z,100
2017-09-10T05:12:57.157Z,100
2017-09-10T05:13:59.558Z,100
2017-09-10T05:15:01.971Z,100
2017-09-10T05:16:04.367Z,100
2017-09-10T05:17:07.106Z,100
2017-09-10T05:18:09.494Z,100
2017-09-10T05:19:11.897Z,100
2017-09-10T05:20:14.297Z,100
2017-09-10T05:21:16.689Z,100
2017-09-10T05:22:19.086Z,100
2017-09-10T05:23:21.476Z,100
2017-09-10T05:24:23.865Z,100
2017-09-10T05:25:26.607Z,100
2017-09-10T05:26:28.993Z,100
2017-09-10T05:27:31.386Z,100
2017-09-10T05:28:33.775Z,100
2017-09-10T05:29:36.166Z,100
2017-09-10T05:30:38.574Z,100
2017-09-10T05:31:40.973Z,100
2017-09-10T05:32:43.357Z,100
2017-09-10T05:33:45.762Z,100
2017-09-10T05:34:48.165Z,100
2017-09-10T05:35:50.558Z,100
2017-09-10T05:36:52.949Z,100
2017-09-10T05:37:55.703Z,100
2017-09-10T05:38:58.095Z,100
2017-09-10T05:40:00.491Z,100
2017-09-10T05:41:02.876Z,100
2017-09-10T05:42:05.277Z,100
2017-09-10T05:43:07.663Z,100
2017-09-10T05:44:10.054Z,100
2017-09-10T05:45:12.457Z,100
2017-09-10T05:46:14.849Z,100
2017-09-10T05:47:17.233Z,100
2017-09-10T05:48:19.630Z,100
2017-09-10T05:49:22.032Z,100
2017-09-10T05:50:24.422Z,100
2017-09-10T05:51:26.827Z,100
2017-09-10T05:52:29.210Z,100
2017-09-10T05:53:31.600Z,100
2017-09-10T05:54:33.990Z,100
2017-09-10T05:55:36.389Z,100
2017-09-10T05:56:38.790Z,100
2017-09-10T05:57:41.536Z,100
2017-09-10T05:58:43.915Z,100
2017-09-10T05:59:46.314Z,100
2017-09-10T06:00:48.721Z,100
2017-09-10T06:01:51.451Z,100
2017-09-10T06:02:54.185Z,100
2017-09-10T06:03:56.581Z,100
2017-09-10T06:04:58.979Z,100
2017-09-10T06:06:01.393Z,100
2017-09-10T06:07:03.785Z,100
2017-09-10T06:08:06.175Z,100
2017-09-10T06:09:08.576Z,100
2017-09-10T06:10:10.974Z,100
2017-09-10T06:11:13.366Z,100
2017-09-10T06:12:15.771Z,100
2017-09-10T06:13:18.183Z,100
2017-09-10T06:14:20.584Z,100
2017-09-10T06:15:22.977Z,100
2017-09-10T06:16:25.383Z,100
2017-09-10T06:17:27.777Z,100
2017-09-10T06:18:30.170Z,100
2017-09-10T06:19:32.565Z,100
2017-09-10T06:20:34.966Z,100
2017-09-10T06:21:37.367Z,100
2017-09-10T06:22:40.118Z,100
2017-09-10T06:23:42.521Z,100
2017-09-10T06:24:44.933Z,100
2017-09-10T06:25:47.334Z,100
2017-09-10T06:26:50.073Z,100
2017-09-10T06:27:52.467Z,100
2017-09-10T06:28:54.861Z,100
2017-09-10T06:29:57.263Z,100
2017-09-10T06:30:59.661Z,100
2017-09-10T06:32:02.062Z,100
2017-09-10T06:33:04.511Z,100
2017-09-10T06:34:06.876Z,100
2017-09-10T06:35:09.279Z,100
2017-09-10T06:36:11.685Z,100
2017-09-10T06:37:14.095Z,99
2017-09-10T06:38:16.498Z,99
2017-09-10T06:39:18.895Z,99
2017-09-10T06:40:21.993Z,99
2017-09-10T06:41:24.380Z,99
2017-09-10T06:42:27.123Z,98
2017-09-10T06:43:29.511Z,98
2017-09-10T06:44:31.900Z,98
2017-09-10T06:45:34.311Z,98
2017-09-10T06:46:36.703Z,98
2017-09-10T06:47:39.094Z,97
2017-09-10T06:48:41.503Z,97
2017-09-10T06:49:43.896Z,98
2017-09-10T06:50:46.307Z,98
2017-09-10T06:51:49.046Z,97
2017-09-10T06:52:51.459Z,97
2017-09-10T06:53:53.853Z,97
2017-09-10T06:54:56.264Z,97
2017-09-10T06:55:58.696Z,97
2017-09-10T06:57:01.090Z,97
2017-09-10T06:58:03.491Z,97
2017-09-10T06:59:05.893Z,97
2017-09-10T07:00:08.295Z,97
2017-09-10T07:01:10.719Z,97
2017-09-10T07:02:13.118Z,97
2017-09-10T07:03:15.521Z,97
2017-09-10T07:04:17.936Z,97
2017-09-10T07:05:20.339Z,97
2017-09-10T07:06:22.756Z,96
2017-09-10T07:07:25.140Z,96
2017-09-10T07:08:27.534Z,96
2017-09-10T07:09:29.934Z,96
2017-09-10T07:10:32.335Z,96
2017-09-10T07:11:34.743Z,96
2017-09-10T07:12:37.135Z,96
2017-09-10T07:13:39.541Z,96
2017-09-10T07:14:41.972Z,95
2017-09-10T07:15:44.363Z,95
2017-09-10T07:16:46.763Z,95
2017-09-10T07:17:49.174Z,95
2017-09-10T07:18:51.904Z,95
2017-09-10T07:19:55.002Z,95
2017-09-10T07:20:57.395Z,95
2017-09-10T07:21:59.804Z,95
2017-09-10T07:23:02.205Z,95
2017-09-10T07:24:04.941Z,95
2017-09-10T07:25:07.335Z,94
2017-09-10T07:26:10.077Z,94
2017-09-10T07:27:12.477Z,94
2017-09-10T07:28:14.872Z,94
2017-09-10T07:29:17.265Z,94
2017-09-10T07:30:19.665Z,94
2017-09-10T07:31:22.430Z,94
2017-09-10T07:32:24.829Z,94
2017-09-10T07:33:27.228Z,94
2017-09-10T07:34:29.635Z,94
2017-09-10T07:35:32.044Z,94
2017-09-10T07:36:34.450Z,94
2017-09-10T07:37:36.845Z,93
2017-09-10T07:38:39.586Z,93
2017-09-10T07:39:42.331Z,93
2017-09-10T07:40:44.722Z,93
2017-09-10T07:41:47.120Z,93
2017-09-10T07:42:49.519Z,93
2017-09-10T07:43:51.923Z,93
2017-09-10T07:44:54.324Z,92
2017-09-10T07:45:56.722Z,92
2017-09-10T07:46:59.127Z,92
2017-09-10T07:48:01.529Z,92
2017-09-10T07:49:03.930Z,92
2017-09-10T07:50:06.328Z,92
2017-09-10T07:51:08.724Z,92
2017-09-10T07:52:11.143Z,91
2017-09-10T07:53:13.544Z,90
2017-09-10T07:54:15.942Z,89
2017-09-10T07:55:18.329Z,90
2017-09-10T07:56:21.068Z,89
2017-09-10T07:57:23.479Z,88
2017-09-10T07:58:25.880Z,88
2017-09-10T07:59:28.273Z,89
2017-09-10T08:00:30.681Z,89
2017-09-10T08:01:33.084Z,89
2017-09-10T08:02:35.483Z,88
2017-09-10T08:03:37.881Z,88
2017-09-10T08:04:40.269Z,87
2017-09-10T08:05:42.672Z,87
2017-09-10T08:06:45.078Z,86
2017-09-10T08:07:47.476Z,86
2017-09-10T08:08:49.896Z,86
2017-09-10T08:09:52.298Z,85
2017-09-10T08:10:54.710Z,85
2017-09-10T08:11:57.101Z,85
2017-09-10T08:12:59.503Z,85
2017-09-10T08:14:01.910Z,85
2017-09-10T08:15:04.308Z,84
2017-09-10T08:16:06.718Z,84
2017-09-10T08:17:09.114Z,84
2017-09-10T08:18:11.512Z,83
2017-09-10T08:19:13.929Z,82
2017-09-10T08:20:16.326Z,82
2017-09-10T08:21:18.731Z,80
2017-09-10T08:22:21.132Z,81
2017-09-10T08:23:23.529Z,80
2017-09-10T08:24:25.933Z,79
2017-09-10T08:25:28.333Z,80
2017-09-10T08:26:30.740Z,80
2017-09-10T08:27:33.141Z,80
2017-09-10T08:28:35.883Z,80
2017-09-10T08:29:38.291Z,78
2017-09-10T08:30:40.677Z,78
2017-09-10T08:31:43.079Z,78
2017-09-10T08:32:45.812Z,77
2017-09-10T08:33:48.580Z,77
2017-09-10T08:34:50.970Z,75
2017-09-10T08:35:53.369Z,76
2017-09-10T08:36:55.781Z,75
2017-09-10T08:37:58.189Z,73
2017-09-10T08:39:00.592Z,74
2017-09-10T08:40:02.995Z,73
2017-09-10T08:41:05.497Z,74
2017-09-10T08:42:07.906Z,73
2017-09-10T08:43:10.310Z,73
2017-09-10T08:44:12.730Z,71
2017-09-10T08:45:15.150Z,71
2017-09-10T08:46:17.554Z,71
2017-09-10T08:47:19.966Z,73
2017-09-10T08:48:22.360Z,73
2017-09-10T08:49:24.762Z,72
2017-09-10T08:50:27.174Z,70
2017-09-10T08:51:29.589Z,71
2017-09-10T08:52:31.990Z,70
2017-09-10T08:53:34.416Z,74
2017-09-10T08:54:36.821Z,74
2017-09-10T08:55:39.581Z,74
2017-09-10T08:56:41.988Z,71
2017-09-10T08:57:44.396Z,72
2017-09-10T08:58:46.804Z,71
2017-09-10T08:59:49.206Z,71
2017-09-10T09:00:51.617Z,69
2017-09-10T09:01:54.031Z,69
2017-09-10T09:02:56.428Z,69
2017-09-10T09:03:58.835Z,70
2017-09-10T09:05:01.605Z,71
2017-09-10T09:06:04.019Z,70
2017-09-10T09:07:06.789Z,71
2017-09-10T09:08:09.213Z,70
2017-09-10T09:09:11.623Z,69
2017-09-10T09:10:14.043Z,68
2017-09-10T09:11:16.455Z,69
2017-09-10T09:12:18.860Z,68
2017-09-10T09:13:21.271Z,71
2017-09-10T09:14:23.691Z,69
2017-09-10T09:15:26.094Z,68
2017-09-10T09:16:28.500Z,68
2017-09-10T09:17:30.901Z,69
2017-09-10T09:18:33.664Z,69
2017-09-10T09:19:36.079Z,68
2017-09-10T09:20:38.485Z,68
2017-09-10T09:21:41.239Z,69
2017-09-10T09:22:43.648Z,67
2017-09-10T09:23:46.052Z,67
2017-09-10T09:24:48.480Z,66
2017-09-10T09:25:51.221Z,67
2017-09-10T09:26:53.631Z,66
2017-09-10T09:27:56.054Z,68
2017-09-10T09:28:58.462Z,70
2017-09-10T09:30:00.873Z,67
2017-09-10T09:31:03.284Z,66
2017-09-10T09:32:05.691Z,66
2017-09-10T09:33:08.105Z,66
2017-09-10T09:34:10.518Z,66
2017-09-10T09:35:12.918Z,66
2017-09-10T09:36:15.357Z,66
2017-09-10T09:37:17.777Z,66
2017-09-10T09:38:20.183Z,66
2017-09-10T09:39:22.605Z,66
2017-09-10T09:40:25.020Z,68
2017-09-10T09:41:27.444Z,69
2017-09-10T09:42:30.198Z,68
2017-09-10T09:43:32.606Z,66
2017-09-10T09:44:35.026Z,66
2017-09-10T09:45:37.438Z,66
2017-09-10T09:46:39.847Z,65
2017-09-10T09:47:42.265Z,65
2017-09-10T09:48:44.675Z,65
2017-09-10T09:49:47.092Z,65
2017-09-10T09:50:49.509Z,64
2017-09-10T09:51:51.934Z,65
2017-09-10T09:52:54.674Z,64
2017-09-10T09:53:57.089Z,67
2017-09-10T09:54:59.501Z,66
2017-09-10T09:56:01.910Z,64
2017-09-10T09:57:04.336Z,65
2017-09-10T09:58:06.747Z,63
2017-09-10T09:59:09.154Z,63
2017-09-10T10:00:11.568Z,65
2017-09-10T10:01:13.967Z,64
2017-09-10T10:02:16.387Z,63
2017-09-10T10:03:18.799Z,64
2017-09-10T10:04:21.203Z,62
2017-09-10T10:05:23.952Z,63
2017-09-10T10:06:26.356Z,62
2017-09-10T10:07:28.774Z,62
2017-09-10T10:08:31.170Z,62
2017-09-10T10:09:33.586Z,62
2017-09-10T10:10:35.997Z,61
2017-09-10T10:11:38.410Z,61
2017-09-10T10:12:40.822Z,61
2017-09-10T10:13:43.236Z,62
2017-09-10T10:14:45.640Z,62
2017-09-10T10:15:48.057Z,61
2017-09-10T10:16:50.479Z,60
2017-09-10T10:17:52.882Z,61
2017-09-10T10:18:55.646Z,61
2017-09-10T10:19:58.414Z,59
2017-09-10T10:21:00.819Z,60
2017-09-10T10:22:03.226Z,61
2017-09-10T10:23:05.633Z,60
2017-09-10T10:24:08.039Z,59
2017-09-10T10:25:10.458Z,59
2017-09-10T10:26:12.860Z,60
2017-09-10T10:27:15.275Z,60
2017-09-10T10:28:17.693Z,58
2017-09-10T10:29:20.103Z,59
2017-09-10T10:30:22.517Z,59
2017-09-10T10:31:24.932Z,59
2017-09-10T10:32:27.337Z,61
2017-09-10T10:33:29.745Z,60
2017-09-10T10:34:32.168Z,59
2017-09-10T10:35:34.584Z,60
2017-09-10T10:36:36.990Z,60
2017-09-10T10:37:39.407Z,61
2017-09-10T10:38:41.816Z,64
2017-09-10T10:39:44.213Z,62
2017-09-10T10:40:46.622Z,57
2017-09-10T10:41:49.048Z,62
2017-09-10T10:42:51.794Z,59
2017-09-10T10:43:54.197Z,59
2017-09-10T10:44:56.611Z,60
2017-09-10T10:45:59.020Z,60
2017-09-10T10:47:01.438Z,60
2017-09-10T10:48:03.849Z,61
2017-09-10T10:49:06.248Z,60
2017-09-10T10:50:08.994Z,59
2017-09-10T10:51:11.413Z,58
2017-09-10T10:52:13.814Z,58
2017-09-10T10:53:16.576Z,58
2017-09-10T10:54:18.986Z,58
2017-09-10T10:55:21.394Z,59
2017-09-10T10:56:23.808Z,61
2017-09-10T10:57:26.221Z,60
2017-09-10T10:58:28.620Z,58
2017-09-10T10:59:31.037Z,58
2017-09-10T11:00:33.452Z,58
2017-09-10T11:01:35.861Z,61
2017-09-10T11:02:38.284Z,59
2017-09-10T11:03:40.695Z,58
2017-09-10T11:04:43.099Z,58
2017-09-10T11:05:45.510Z,58
2017-09-10T11:06:47.919Z,59
2017-09-10T11:07:50.336Z,58
2017-09-10T11:08:52.743Z,58
2017-09-10T11:09:55.150Z,56
2017-09-10T11:10:57.561Z,56
2017-09-10T11:12:00.306Z,56
2017-09-10T11:13:02.722Z,55
2017-09-10T11:14:05.120Z,55
2017-09-10T11:15:07.530Z,55
2017-09-10T11:16:09.935Z,54
2017-09-10T11:17:12.354Z,55
2017-09-10T11:18:14.758Z,55
2017-09-10T11:19:17.167Z,56
2017-09-10T11:20:19.575Z,58
2017-09-10T11:21:21.988Z,58
2017-09-10T11:22:24.402Z,59
2017-09-10T11:23:26.812Z,59
2017-09-10T11:24:29.218Z,62
2017-09-10T11:25:31.636Z,61
2017-09-10T11:26:34.039Z,62
2017-09-10T11:27:36.463Z,62
2017-09-10T11:28:38.874Z,60
2017-09-10T11:29:41.283Z,57
2017-09-10T11:30:43.689Z,57
2017-09-10T11:31:46.105Z,56
2017-09-10T11:32:48.513Z,58
2017-09-10T11:33:50.929Z,57
2017-09-10T11:34:53.363Z,57
2017-09-10T11:35:55.767Z,57
2017-09-10T11:36:58.180Z,57
2017-09-10T11:38:00.935Z,55
2017-09-10T11:39:03.346Z,55
2017-09-10T11:40:05.766Z,56
2017-09-10T11:41:08.527Z,55
2017-09-10T11:42:10.934Z,57
2017-09-10T11:43:13.334Z,56
2017-09-10T11:44:16.087Z,54
2017-09-10T11:45:18.494Z,54
2017-09-10T11:46:20.953Z,55
2017-09-10T11:47:23.765Z,55
2017-09-10T11:48:26.175Z,55
2017-09-10T11:49:28.591Z,57
2017-09-10T11:50:31.009Z,54
2017-09-10T11:51:33.418Z,54
2017-09-10T11:52:35.830Z,54
2017-09-10T11:53:38.248Z,54
2017-09-10T11:54:40.661Z,54
2017-09-10T11:55:43.078Z,55
2017-09-10T11:56:45.493Z,54
2017-09-10T11:57:47.902Z,53
2017-09-10T11:58:50.324Z,52
2017-09-10T11:59:52.748Z,53
2017-09-10T12:00:55.146Z,52
2017-09-10T12:01:57.558Z,53
2017-09-10T12:02:59.961Z,53
2017-09-10T12:04:02.372Z,53
2017-09-10T12:05:04.803Z,52
2017-09-10T12:06:07.224Z,52
2017-09-10T12:07:09.627Z,53
2017-09-10T12:08:12.040Z,54
2017-09-10T12:09:14.449Z,56
2017-09-10T12:10:16.868Z,54
2017-09-10T12:11:19.315Z,52
2017-09-10T12:12:21.750Z,53
2017-09-10T12:13:24.153Z,54
2017-09-10T12:14:26.570Z,53
2017-09-10T12:15:28.985Z,52
2017-09-10T12:16:31.402Z,51
2017-09-10T12:17:33.824Z,54
2017-09-10T12:18:36.247Z,52
2017-09-10T12:19:38.653Z,51
2017-09-10T12:20:41.062Z,51
2017-09-10T12:21:43.467Z,53
2017-09-10T12:22:45.882Z,51
2017-09-10T12:23:48.305Z,50
2017-09-10T12:24:50.709Z,51
2017-09-10T12:25:53.133Z,51
2017-09-10T12:26:55.543Z,51
2017-09-10T12:27:58.303Z,51
2017-09-10T12:29:00.725Z,54
2017-09-10T12:30:03.133Z,53
2017-09-10T12:31:05.882Z,52
2017-09-10T12:32:08.303Z,51
2017-09-10T12:33:10.715Z,51
2017-09-10T12:34:13.136Z,49
2017-09-10T12:35:15.888Z,50
2017-09-10T12:36:18.310Z,52
2017-09-10T12:37:20.719Z,52
2017-09-10T12:38:23.117Z,52
2017-09-10T12:39:25.533Z,50
2017-09-10T12:40:27.945Z,52
2017-09-10T12:41:30.725Z,51
2017-09-10T12:42:33.140Z,51
2017-09-10T12:43:35.550Z,51
2017-09-10T12:44:37.964Z,50
2017-09-10T12:45:40.375Z,52
2017-09-10T12:46:42.780Z,53
2017-09-10T12:47:45.200Z,52
2017-09-10T12:48:47.622Z,52
2017-09-10T12:49:50.038Z,52
2017-09-10T12:50:52.447Z,52
2017-09-10T12:51:54.859Z,51
2017-09-10T12:52:57.260Z,50
2017-09-10T12:53:59.681Z,51
2017-09-10T12:55:02.090Z,50
2017-09-10T12:56:04.505Z,51
2017-09-10T12:57:06.920Z,51
2017-09-10T12:58:09.332Z,52
2017-09-10T12:59:11.752Z,51
2017-09-10T13:00:14.168Z,51
2017-09-10T13:01:16.586Z,51
2017-09-10T13:02:19.000Z,53
2017-09-10T13:03:21.410Z,52
2017-09-10T13:04:23.820Z,53
2017-09-10T13:05:26.234Z,55
2017-09-10T13:06:28.635Z,54
2017-09-10T13:07:31.054Z,49
2017-09-10T13:08:33.469Z,51
2017-09-10T13:09:35.883Z,50
2017-09-10T13:10:38.337Z,51
2017-09-10T13:11:40.749Z,53
2017-09-10T13:12:43.159Z,55
2017-09-10T13:13:45.581Z,55
2017-09-10T13:14:47.990Z,54
2017-09-10T13:15:50.398Z,53
2017-09-10T13:16:52.814Z,53
2017-09-10T13:17:55.226Z,52
2017-09-10T13:18:57.643Z,51
2017-09-10T13:20:00.064Z,51
2017-09-10T13:21:02.824Z,54
2017-09-10T13:22:05.232Z,52
2017-09-10T13:23:07.650Z,52
2017-09-10T13:24:10.064Z,51
2017-09-10T13:25:12.473Z,52
2017-09-10T13:26:15.215Z,52
2017-09-10T13:27:17.616Z,50
2017-09-10T13:28:20.058Z,51
2017-09-10T13:29:22.502Z,52
2017-09-10T13:30:24.924Z,52
2017-09-10T13:31:27.352Z,53
2017-09-10T13:32:29.771Z,52
2017-09-10T13:33:32.578Z,50
2017-09-10T13:34:35.019Z,51
2017-09-10T13:35:37.447Z,53
2017-09-10T13:36:39.876Z,52
2017-09-10T13:37:42.295Z,54
2017-09-10T13:38:44.733Z,52
2017-09-10T13:39:47.153Z,55
2017-09-10T13:40:49.569Z,54
2017-09-10T13:41:52.009Z,56
2017-09-10T13:42:54.453Z,53
2017-09-10T13:43:56.897Z,51
2017-09-10T13:44:59.337Z,50
2017-09-10T13:46:01.758Z,50
2017-09-10T13:47:04.555Z,52
2017-09-10T13:48:06.988Z,51
2017-09-10T13:49:09.424Z,50
2017-09-10T13:50:11.851Z,52
2017-09-10T13:51:14.270Z,51
2017-09-10T13:52:16.702Z,51
2017-09-10T13:53:19.127Z,49
2017-09-10T13:54:21.587Z,49
2017-09-10T13:55:24.028Z,49
2017-09-10T13:56:26.444Z,50
2017-09-10T13:57:28.875Z,50
2017-09-10T13:58:31.308Z,51
2017-09-10T13:59:34.106Z,50
2017-09-10T14:00:36.553Z,51
2017-09-10T14:01:38.990Z,51
2017-09-10T14:02:41.404Z,51
2017-09-10T14:03:43.828Z,52
2017-09-10T14:04:46.260Z,52
2017-09-10T14:05:48.679Z,52
2017-09-10T14:06:51.108Z,52
2017-09-10T14:07:53.538Z,52
2017-09-10T14:08:55.987Z,53
2017-09-10T14:09:58.415Z,52
2017-09-10T14:11:00.823Z,51
2017-09-10T14:12:03.249Z,51
2017-09-10T14:13:06.002Z,52
2017-09-10T14:14:08.432Z,51
2017-09-10T14:15:10.864Z,52
2017-09-10T14:16:13.293Z,52
2017-09-10T14:17:15.727Z,54
2017-09-10T14:18:18.156Z,53
2017-09-10T14:19:20.584Z,54
2017-09-10T14:20:23.000Z,53
2017-09-10T14:21:25.424Z,53
2017-09-10T14:22:27.856Z,54
2017-09-10T14:23:30.299Z,54
2017-09-10T14:24:32.721Z,55
2017-09-10T14:25:35.135Z,57
2017-09-10T14:26:37.576Z,57
2017-09-10T14:27:40.026Z,54
2017-09-10T14:28:42.472Z,54
2017-09-10T14:29:44.894Z,54
2017-09-10T14:30:47.651Z,54
2017-09-10T14:31:50.092Z,55
2017-09-10T14:32:52.514Z,55
2017-09-10T14:33:54.924Z,52
2017-09-10T14:34:57.330Z,52
2017-09-10T14:35:59.745Z,53